sensor_id;sensor_type;location;lat;lon;timestamp;P1;durP1;ratioP1;P2;durP2;ratioP2
16813;SDS011;8524;57.650;11.926;2023-03-30T00:01:46;2.40;;;2.20;;
16813;SDS011;8524;57.650;11.926;2023-03-30T00:04:13;2.40;;;2.20;;
16813;SDS011;8524;57.650;11.926;2023-03-30T00:06:42;2.53;;;2.00;;
16813;SDS011;8524;57.650;11.926;2023-03-30T00:09:11;2.33;;;1.80;;
16813;SDS011;8524;57.650;11.926;2023-03-30T00:11:38;2.03;;;1.90;;
16813;SDS011;8524;57.650;11.926;2023-03-30T00:14:07;2.00;;;1.77;;
16813;SDS011;8524;57.650;11.926;2023-03-30T00:16:34;2.00;;;1.70;;
16813;SDS011;8524;57.650;11.926;2023-03-30T00:19:01;1.70;;;1.60;;
16813;SDS011;8524;57.650;11.926;2023-03-30T00:21:28;1.73;;;1.63;;
16813;SDS011;8524;57.650;11.926;2023-03-30T00:23:55;2.40;;;2.20;;
16813;SDS011;8524;57.650;11.926;2023-03-30T00:26:24;2.33;;;2.13;;
16813;SDS011;8524;57.650;11.926;2023-03-30T00:28:51;2.00;;;1.90;;
16813;SDS011;8524;57.650;11.926;2023-03-30T00:31:19;1.80;;;1.70;;
16813;SDS011;8524;57.650;11.926;2023-03-30T00:33:46;2.00;;;1.80;;
16813;SDS011;8524;57.650;11.926;2023-03-30T00:36:13;2.07;;;1.87;;
16813;SDS011;8524;57.650;11.926;2023-03-30T00:38:40;1.70;;;1.60;;
16813;SDS011;8524;57.650;11.926;2023-03-30T00:41:08;1.67;;;1.57;;
16813;SDS011;8524;57.650;11.926;2023-03-30T00:46:22;2.30;;;1.80;;
16813;SDS011;8524;57.650;11.926;2023-03-30T00:48:49;2.00;;;1.50;;
16813;SDS011;8524;57.650;11.926;2023-03-30T00:51:16;2.43;;;1.60;;
16813;SDS011;8524;57.650;11.926;2023-03-30T00:53:46;1.63;;;1.53;;
16813;SDS011;8524;57.650;11.926;2023-03-30T00:56:16;1.43;;;1.33;;
16813;SDS011;8524;57.650;11.926;2023-03-30T00:58:47;1.70;;;1.60;;
16813;SDS011;8524;57.650;11.926;2023-03-30T01:01:16;1.60;;;1.50;;
16813;SDS011;8524;57.650;11.926;2023-03-30T01:03:49;1.37;;;1.27;;
16813;SDS011;8524;57.650;11.926;2023-03-30T01:06:17;1.40;;;1.30;;
16813;SDS011;8524;57.650;11.926;2023-03-30T01:08:48;1.47;;;1.37;;
16813;SDS011;8524;57.650;11.926;2023-03-30T01:11:16;1.67;;;1.57;;
16813;SDS011;8524;57.650;11.926;2023-03-30T01:13:44;1.63;;;1.47;;
16813;SDS011;8524;57.650;11.926;2023-03-30T01:16:16;1.10;;;1.10;;
16813;SDS011;8524;57.650;11.926;2023-03-30T01:18:54;1.47;;;1.20;;
16813;SDS011;8524;57.650;11.926;2023-03-30T01:27:50;0.90;;;0.90;;
16813;SDS011;8524;57.650;11.926;2023-03-30T01:30:34;0.83;;;0.83;;
16813;SDS011;8524;57.650;11.926;2023-03-30T01:33:30;1.20;;;1.10;;
16813;SDS011;8524;57.650;11.926;2023-03-30T01:36:43;0.90;;;0.90;;
16813;SDS011;8524;57.650;11.926;2023-03-30T01:39:32;1.23;;;1.13;;
16813;SDS011;8524;57.650;11.926;2023-03-30T01:42:06;0.90;;;0.90;;
16813;SDS011;8524;57.650;11.926;2023-03-30T01:44:42;0.80;;;0.80;;
16813;SDS011;8524;57.650;11.926;2023-03-30T01:47:16;0.93;;;0.90;;
16813;SDS011;8524;57.650;11.926;2023-03-30T01:49:48;1.00;;;1.00;;
16813;SDS011;8524;57.650;11.926;2023-03-30T01:52:23;0.93;;;0.93;;
16813;SDS011;8524;57.650;11.926;2023-03-30T01:54:58;0.80;;;0.80;;
16813;SDS011;8524;57.650;11.926;2023-03-30T01:57:29;0.90;;;0.90;;
16813;SDS011;8524;57.650;11.926;2023-03-30T02:00:02;0.90;;;0.90;;
16813;SDS011;8524;57.650;11.926;2023-03-30T02:02:38;0.80;;;0.80;;
16813;SDS011;8524;57.650;11.926;2023-03-30T02:05:09;0.80;;;0.80;;
16813;SDS011;8524;57.650;11.926;2023-03-30T02:07:42;0.70;;;0.70;;
16813;SDS011;8524;57.650;11.926;2023-03-30T02:10:11;0.87;;;0.87;;
16813;SDS011;8524;57.650;11.926;2023-03-30T02:12:43;0.60;;;0.60;;
16813;SDS011;8524;57.650;11.926;2023-03-30T02:15:12;0.90;;;0.90;;
16813;SDS011;8524;57.650;11.926;2023-03-30T02:17:41;1.00;;;0.90;;
16813;SDS011;8524;57.650;11.926;2023-03-30T02:20:11;0.70;;;0.70;;
16813;SDS011;8524;57.650;11.926;2023-03-30T02:22:40;1.10;;;1.00;;
16813;SDS011;8524;57.650;11.926;2023-03-30T02:25:08;1.13;;;0.70;;
16813;SDS011;8524;57.650;11.926;2023-03-30T02:27:37;0.80;;;0.80;;
16813;SDS011;8524;57.650;11.926;2023-03-30T02:30:06;0.80;;;0.80;;
16813;SDS011;8524;57.650;11.926;2023-03-30T02:32:37;1.27;;;1.17;;
16813;SDS011;8524;57.650;11.926;2023-03-30T02:38:11;0.90;;;0.90;;
16813;SDS011;8524;57.650;11.926;2023-03-30T02:40:55;1.10;;;0.80;;
16813;SDS011;8524;57.650;11.926;2023-03-30T02:43:34;0.80;;;0.80;;
16813;SDS011;8524;57.650;11.926;2023-03-30T02:46:12;0.70;;;0.70;;
16813;SDS011;8524;57.650;11.926;2023-03-30T02:48:51;0.90;;;0.90;;
16813;SDS011;8524;57.650;11.926;2023-03-30T02:51:32;0.77;;;0.77;;
16813;SDS011;8524;57.650;11.926;2023-03-30T02:54:08;0.80;;;0.80;;
16813;SDS011;8524;57.650;11.926;2023-03-30T02:56:48;0.80;;;0.80;;
16813;SDS011;8524;57.650;11.926;2023-03-30T02:59:25;0.97;;;0.97;;
16813;SDS011;8524;57.650;11.926;2023-03-30T03:01:56;0.87;;;0.87;;
16813;SDS011;8524;57.650;11.926;2023-03-30T03:04:28;0.70;;;0.70;;
16813;SDS011;8524;57.650;11.926;2023-03-30T03:06:58;0.80;;;0.80;;
16813;SDS011;8524;57.650;11.926;2023-03-30T03:09:26;0.87;;;0.87;;
16813;SDS011;8524;57.650;11.926;2023-03-30T03:11:54;0.83;;;0.83;;
16813;SDS011;8524;57.650;11.926;2023-03-30T03:14:21;0.97;;;0.97;;
16813;SDS011;8524;57.650;11.926;2023-03-30T03:16:52;0.80;;;0.80;;
16813;SDS011;8524;57.650;11.926;2023-03-30T03:19:19;1.00;;;1.00;;
16813;SDS011;8524;57.650;11.926;2023-03-30T03:21:47;1.00;;;1.00;;
16813;SDS011;8524;57.650;11.926;2023-03-30T03:24:14;0.80;;;0.80;;
16813;SDS011;8524;57.650;11.926;2023-03-30T03:26:43;0.80;;;0.80;;
16813;SDS011;8524;57.650;11.926;2023-03-30T03:29:10;1.00;;;1.00;;
16813;SDS011;8524;57.650;11.926;2023-03-30T03:31:37;0.90;;;0.90;;
16813;SDS011;8524;57.650;11.926;2023-03-30T03:34:05;0.90;;;0.90;;
16813;SDS011;8524;57.650;11.926;2023-03-30T03:36:33;1.80;;;0.97;;
16813;SDS011;8524;57.650;11.926;2023-03-30T03:39:00;0.93;;;0.90;;
16813;SDS011;8524;57.650;11.926;2023-03-30T03:41:28;0.73;;;0.73;;
16813;SDS011;8524;57.650;11.926;2023-03-30T03:43:55;0.97;;;0.97;;
16813;SDS011;8524;57.650;11.926;2023-03-30T03:46:22;0.90;;;0.90;;
16813;SDS011;8524;57.650;11.926;2023-03-30T03:48:49;0.90;;;0.90;;
16813;SDS011;8524;57.650;11.926;2023-03-30T03:51:17;0.80;;;0.80;;
16813;SDS011;8524;57.650;11.926;2023-03-30T03:53:44;1.33;;;1.20;;
16813;SDS011;8524;57.650;11.926;2023-03-30T03:56:13;0.80;;;0.80;;
16813;SDS011;8524;57.650;11.926;2023-03-30T03:58:41;0.90;;;0.90;;
16813;SDS011;8524;57.650;11.926;2023-03-30T04:01:08;1.50;;;1.20;;
16813;SDS011;8524;57.650;11.926;2023-03-30T04:03:38;1.00;;;1.00;;
16813;SDS011;8524;57.650;11.926;2023-03-30T04:06:06;1.10;;;1.10;;
16813;SDS011;8524;57.650;11.926;2023-03-30T04:08:34;0.80;;;0.80;;
16813;SDS011;8524;57.650;11.926;2023-03-30T04:11:05;0.90;;;0.90;;
16813;SDS011;8524;57.650;11.926;2023-03-30T04:13:34;1.30;;;1.20;;
16813;SDS011;8524;57.650;11.926;2023-03-30T04:16:01;1.20;;;1.20;;
16813;SDS011;8524;57.650;11.926;2023-03-30T04:18:29;1.17;;;1.07;;
16813;SDS011;8524;57.650;11.926;2023-03-30T04:20:57;1.40;;;1.30;;
16813;SDS011;8524;57.650;11.926;2023-03-30T04:23:27;1.00;;;1.00;;
16813;SDS011;8524;57.650;11.926;2023-03-30T04:25:57;1.10;;;1.00;;
16813;SDS011;8524;57.650;11.926;2023-03-30T04:28:26;1.60;;;1.20;;
16813;SDS011;8524;57.650;11.926;2023-03-30T04:30:56;1.40;;;1.30;;
16813;SDS011;8524;57.650;11.926;2023-03-30T04:33:23;1.20;;;1.10;;
16813;SDS011;8524;57.650;11.926;2023-03-30T04:35:50;1.23;;;1.13;;
16813;SDS011;8524;57.650;11.926;2023-03-30T04:38:17;1.37;;;1.27;;
16813;SDS011;8524;57.650;11.926;2023-03-30T04:40:47;1.00;;;1.00;;
16813;SDS011;8524;57.650;11.926;2023-03-30T04:43:16;1.47;;;1.37;;
16813;SDS011;8524;57.650;11.926;2023-03-30T04:45:46;1.40;;;1.30;;
16813;SDS011;8524;57.650;11.926;2023-03-30T04:48:15;1.67;;;1.57;;
16813;SDS011;8524;57.650;11.926;2023-03-30T04:50:44;1.17;;;1.17;;
16813;SDS011;8524;57.650;11.926;2023-03-30T04:53:13;1.47;;;1.37;;
16813;SDS011;8524;57.650;11.926;2023-03-30T04:55:41;1.43;;;1.33;;
16813;SDS011;8524;57.650;11.926;2023-03-30T04:58:12;1.63;;;1.53;;
16813;SDS011;8524;57.650;11.926;2023-03-30T05:00:41;1.50;;;1.40;;
16813;SDS011;8524;57.650;11.926;2023-03-30T05:03:08;1.50;;;1.40;;
16813;SDS011;8524;57.650;11.926;2023-03-30T05:05:35;1.50;;;1.40;;
16813;SDS011;8524;57.650;11.926;2023-03-30T05:08:02;1.60;;;1.50;;
16813;SDS011;8524;57.650;11.926;2023-03-30T05:10:30;1.90;;;1.63;;
16813;SDS011;8524;57.650;11.926;2023-03-30T05:12:56;1.60;;;1.50;;
16813;SDS011;8524;57.650;11.926;2023-03-30T05:15:23;1.50;;;1.40;;
16813;SDS011;8524;57.650;11.926;2023-03-30T05:17:52;2.23;;;1.50;;
16813;SDS011;8524;57.650;11.926;2023-03-30T05:20:19;1.93;;;1.80;;
16813;SDS011;8524;57.650;11.926;2023-03-30T05:22:46;1.50;;;1.40;;
16813;SDS011;8524;57.650;11.926;2023-03-30T05:25:15;1.60;;;1.50;;
16813;SDS011;8524;57.650;11.926;2023-03-30T05:27:42;1.97;;;1.53;;
16813;SDS011;8524;57.650;11.926;2023-03-30T05:30:09;2.10;;;2.00;;
16813;SDS011;8524;57.650;11.926;2023-03-30T05:32:37;1.73;;;1.63;;
16813;SDS011;8524;57.650;11.926;2023-03-30T05:35:06;1.57;;;1.47;;
16813;SDS011;8524;57.650;11.926;2023-03-30T05:37:33;1.57;;;1.47;;
16813;SDS011;8524;57.650;11.926;2023-03-30T05:40:00;2.10;;;1.90;;
16813;SDS011;8524;57.650;11.926;2023-03-30T05:42:30;2.00;;;1.90;;
16813;SDS011;8524;57.650;11.926;2023-03-30T05:44:57;2.27;;;2.07;;
16813;SDS011;8524;57.650;11.926;2023-03-30T05:47:24;2.00;;;1.90;;
16813;SDS011;8524;57.650;11.926;2023-03-30T05:49:52;1.60;;;1.50;;
16813;SDS011;8524;57.650;11.926;2023-03-30T05:52:21;1.80;;;1.70;;
16813;SDS011;8524;57.650;11.926;2023-03-30T05:54:48;1.90;;;1.80;;
16813;SDS011;8524;57.650;11.926;2023-03-30T05:57:15;2.07;;;1.97;;
16813;SDS011;8524;57.650;11.926;2023-03-30T05:59:43;2.23;;;1.90;;
16813;SDS011;8524;57.650;11.926;2023-03-30T06:02:10;2.57;;;2.20;;
16813;SDS011;8524;57.650;11.926;2023-03-30T06:04:38;1.70;;;1.60;;
16813;SDS011;8524;57.650;11.926;2023-03-30T06:07:05;2.00;;;1.90;;
16813;SDS011;8524;57.650;11.926;2023-03-30T06:09:34;2.10;;;2.00;;
16813;SDS011;8524;57.650;11.926;2023-03-30T06:12:01;2.23;;;2.03;;
16813;SDS011;8524;57.650;11.926;2023-03-30T06:14:28;2.40;;;2.20;;
16813;SDS011;8524;57.650;11.926;2023-03-30T06:16:55;2.13;;;2.00;;
16813;SDS011;8524;57.650;11.926;2023-03-30T06:19:23;2.40;;;2.00;;
16813;SDS011;8524;57.650;11.926;2023-03-30T06:21:51;2.07;;;1.90;;
16813;SDS011;8524;57.650;11.926;2023-03-30T06:24:19;2.70;;;1.90;;
16813;SDS011;8524;57.650;11.926;2023-03-30T06:26:47;3.13;;;2.13;;
16813;SDS011;8524;57.650;11.926;2023-03-30T06:29:15;2.07;;;1.87;;
16813;SDS011;8524;57.650;11.926;2023-03-30T06:31:43;2.17;;;2.00;;
16813;SDS011;8524;57.650;11.926;2023-03-30T06:34:10;1.87;;;1.77;;
16813;SDS011;8524;57.650;11.926;2023-03-30T06:36:38;3.00;;;2.20;;
16813;SDS011;8524;57.650;11.926;2023-03-30T06:39:06;2.03;;;1.90;;
16813;SDS011;8524;57.650;11.926;2023-03-30T06:41:34;1.90;;;1.80;;
16813;SDS011;8524;57.650;11.926;2023-03-30T06:44:03;2.27;;;2.17;;
16813;SDS011;8524;57.650;11.926;2023-03-30T06:46:30;2.23;;;2.03;;
16813;SDS011;8524;57.650;11.926;2023-03-30T06:48:58;1.70;;;1.60;;
16813;SDS011;8524;57.650;11.926;2023-03-30T06:51:26;2.17;;;1.97;;
16813;SDS011;8524;57.650;11.926;2023-03-30T06:53:53;1.87;;;1.77;;
16813;SDS011;8524;57.650;11.926;2023-03-30T06:56:20;2.10;;;1.90;;
16813;SDS011;8524;57.650;11.926;2023-03-30T06:58:48;1.80;;;1.70;;
16813;SDS011;8524;57.650;11.926;2023-03-30T07:01:17;2.20;;;2.00;;
16813;SDS011;8524;57.650;11.926;2023-03-30T07:03:44;2.13;;;2.00;;
16813;SDS011;8524;57.650;11.926;2023-03-30T07:06:12;2.10;;;2.00;;
16813;SDS011;8524;57.650;11.926;2023-03-30T07:08:40;1.63;;;1.50;;
16813;SDS011;8524;57.650;11.926;2023-03-30T07:11:08;1.90;;;1.70;;
16813;SDS011;8524;57.650;11.926;2023-03-30T07:13:36;1.97;;;1.87;;
16813;SDS011;8524;57.650;11.926;2023-03-30T07:16:04;1.77;;;1.67;;
16813;SDS011;8524;57.650;11.926;2023-03-30T07:18:34;1.90;;;1.80;;
16813;SDS011;8524;57.650;11.926;2023-03-30T07:21:02;1.90;;;1.80;;
16813;SDS011;8524;57.650;11.926;2023-03-30T07:23:29;2.10;;;1.80;;
16813;SDS011;8524;57.650;11.926;2023-03-30T07:26:00;1.63;;;1.53;;
16813;SDS011;8524;57.650;11.926;2023-03-30T07:28:27;2.63;;;1.70;;
16813;SDS011;8524;57.650;11.926;2023-03-30T07:31:03;1.53;;;1.43;;
16813;SDS011;8524;57.650;11.926;2023-03-30T07:33:31;1.90;;;1.60;;
16813;SDS011;8524;57.650;11.926;2023-03-30T07:36:05;1.53;;;1.20;;
16813;SDS011;8524;57.650;11.926;2023-03-30T07:38:34;1.70;;;1.60;;
16813;SDS011;8524;57.650;11.926;2023-03-30T07:41:05;1.53;;;1.43;;
16813;SDS011;8524;57.650;11.926;2023-03-30T07:43:33;1.90;;;1.23;;
16813;SDS011;8524;57.650;11.926;2023-03-30T07:46:00;2.10;;;1.90;;
16813;SDS011;8524;57.650;11.926;2023-03-30T07:48:27;2.08;;;1.88;;
16813;SDS011;8524;57.650;11.926;2023-03-30T07:50:59;1.70;;;1.53;;
16813;SDS011;8524;57.650;11.926;2023-03-30T07:53:29;1.57;;;1.40;;
16813;SDS011;8524;57.650;11.926;2023-03-30T07:55:59;2.03;;;1.53;;
16813;SDS011;8524;57.650;11.926;2023-03-30T07:58:33;2.13;;;1.40;;
16813;SDS011;8524;57.650;11.926;2023-03-30T08:01:12;1.50;;;1.40;;
16813;SDS011;8524;57.650;11.926;2023-03-30T08:03:40;1.40;;;1.30;;
16813;SDS011;8524;57.650;11.926;2023-03-30T08:06:10;1.50;;;1.40;;
16813;SDS011;8524;57.650;11.926;2023-03-30T08:08:38;1.60;;;1.50;;
16813;SDS011;8524;57.650;11.926;2023-03-30T08:11:06;1.30;;;1.20;;
16813;SDS011;8524;57.650;11.926;2023-03-30T08:13:35;1.33;;;1.23;;
16813;SDS011;8524;57.650;11.926;2023-03-30T08:16:02;1.80;;;1.40;;
16813;SDS011;8524;57.650;11.926;2023-03-30T08:18:29;2.03;;;1.70;;
16813;SDS011;8524;57.650;11.926;2023-03-30T08:20:56;1.40;;;1.30;;
16813;SDS011;8524;57.650;11.926;2023-03-30T08:23:25;1.37;;;1.27;;
16813;SDS011;8524;57.650;11.926;2023-03-30T08:25:55;1.40;;;1.30;;
16813;SDS011;8524;57.650;11.926;2023-03-30T08:28:22;1.67;;;1.20;;
16813;SDS011;8524;57.650;11.926;2023-03-30T08:30:50;0.90;;;0.90;;
16813;SDS011;8524;57.650;11.926;2023-03-30T08:33:18;1.30;;;1.20;;
16813;SDS011;8524;57.650;11.926;2023-03-30T08:35:47;1.20;;;1.10;;
16813;SDS011;8524;57.650;11.926;2023-03-30T08:38:15;1.53;;;1.20;;
16813;SDS011;8524;57.650;11.926;2023-03-30T08:40:44;1.10;;;1.00;;
16813;SDS011;8524;57.650;11.926;2023-03-30T08:43:24;2.10;;;1.20;;
16813;SDS011;8524;57.650;11.926;2023-03-30T08:45:59;1.00;;;0.80;;
16813;SDS011;8524;57.650;11.926;2023-03-30T08:48:27;0.87;;;0.87;;
16813;SDS011;8524;57.650;11.926;2023-03-30T08:51:01;1.17;;;1.07;;
16813;SDS011;8524;57.650;11.926;2023-03-30T08:53:35;1.20;;;1.10;;
16813;SDS011;8524;57.650;11.926;2023-03-30T08:56:07;0.90;;;0.90;;
16813;SDS011;8524;57.650;11.926;2023-03-30T08:58:44;1.00;;;0.90;;
16813;SDS011;8524;57.650;11.926;2023-03-30T09:01:19;1.20;;;1.10;;
16813;SDS011;8524;57.650;11.926;2023-03-30T09:04:12;2.50;;;1.13;;
16813;SDS011;8524;57.650;11.926;2023-03-30T09:06:49;1.80;;;1.30;;
16813;SDS011;8524;57.650;11.926;2023-03-30T09:09:20;1.53;;;1.37;;
16813;SDS011;8524;57.650;11.926;2023-03-30T09:11:53;1.27;;;1.17;;
16813;SDS011;8524;57.650;11.926;2023-03-30T09:14:26;1.00;;;1.00;;
16813;SDS011;8524;57.650;11.926;2023-03-30T09:17:02;1.20;;;1.10;;
16813;SDS011;8524;57.650;11.926;2023-03-30T09:19:35;1.27;;;1.10;;
16813;SDS011;8524;57.650;11.926;2023-03-30T09:22:11;1.07;;;1.07;;
16813;SDS011;8524;57.650;11.926;2023-03-30T09:24:40;2.00;;;1.00;;
16813;SDS011;8524;57.650;11.926;2023-03-30T09:27:11;1.00;;;0.90;;
16813;SDS011;8524;57.650;11.926;2023-03-30T09:29:46;1.87;;;1.03;;
16813;SDS011;8524;57.650;11.926;2023-03-30T09:32:17;1.10;;;0.90;;
16813;SDS011;8524;57.650;11.926;2023-03-30T09:34:55;1.07;;;0.83;;
16813;SDS011;8524;57.650;11.926;2023-03-30T09:37:26;1.50;;;1.40;;
16813;SDS011;8524;57.650;11.926;2023-03-30T09:39:56;0.87;;;0.80;;
16813;SDS011;8524;57.650;11.926;2023-03-30T09:42:31;1.13;;;0.80;;
16813;SDS011;8524;57.650;11.926;2023-03-30T09:45:05;1.07;;;0.90;;
16813;SDS011;8524;57.650;11.926;2023-03-30T09:47:39;1.63;;;1.40;;
16813;SDS011;8524;57.650;11.926;2023-03-30T09:50:08;1.23;;;1.13;;
16813;SDS011;8524;57.650;11.926;2023-03-30T09:52:36;1.10;;;0.90;;
16813;SDS011;8524;57.650;11.926;2023-03-30T09:55:24;1.50;;;1.30;;
16813;SDS011;8524;57.650;11.926;2023-03-30T09:58:08;1.10;;;1.00;;
16813;SDS011;8524;57.650;11.926;2023-03-30T10:00:38;1.23;;;1.13;;
16813;SDS011;8524;57.650;11.926;2023-03-30T10:03:19;1.60;;;1.17;;
16813;SDS011;8524;57.650;11.926;2023-03-30T10:08:34;1.43;;;0.80;;
16813;SDS011;8524;57.650;11.926;2023-03-30T10:11:10;1.27;;;1.17;;
16813;SDS011;8524;57.650;11.926;2023-03-30T10:13:40;3.50;;;1.20;;
16813;SDS011;8524;57.650;11.926;2023-03-30T10:16:10;1.67;;;1.27;;
16813;SDS011;8524;57.650;11.926;2023-03-30T10:18:46;1.23;;;1.00;;
16813;SDS011;8524;57.650;11.926;2023-03-30T10:21:19;1.13;;;1.00;;
16813;SDS011;8524;57.650;11.926;2023-03-30T10:24:01;1.13;;;1.03;;
16813;SDS011;8524;57.650;11.926;2023-03-30T10:26:32;1.10;;;0.97;;
16813;SDS011;8524;57.650;11.926;2023-03-30T10:29:04;1.10;;;1.00;;
16813;SDS011;8524;57.650;11.926;2023-03-30T10:31:34;1.57;;;1.00;;
16813;SDS011;8524;57.650;11.926;2023-03-30T10:34:04;0.83;;;0.80;;
16813;SDS011;8524;57.650;11.926;2023-03-30T10:36:39;0.90;;;0.90;;
16813;SDS011;8524;57.650;11.926;2023-03-30T10:39:07;1.27;;;1.00;;
16813;SDS011;8524;57.650;11.926;2023-03-30T10:41:39;1.20;;;1.10;;
16813;SDS011;8524;57.650;11.926;2023-03-30T10:44:16;1.00;;;1.00;;
16813;SDS011;8524;57.650;11.926;2023-03-30T10:46:47;0.90;;;0.90;;
16813;SDS011;8524;57.650;11.926;2023-03-30T10:49:20;1.07;;;1.07;;
16813;SDS011;8524;57.650;11.926;2023-03-30T10:52:00;0.90;;;0.90;;
16813;SDS011;8524;57.650;11.926;2023-03-30T10:54:32;0.83;;;0.83;;
16813;SDS011;8524;57.650;11.926;2023-03-30T10:57:08;1.10;;;1.00;;
16813;SDS011;8524;57.650;11.926;2023-03-30T10:59:46;0.83;;;0.83;;
16813;SDS011;8524;57.650;11.926;2023-03-30T11:02:28;0.90;;;0.90;;
16813;SDS011;8524;57.650;11.926;2023-03-30T11:05:10;1.00;;;1.00;;
16813;SDS011;8524;57.650;11.926;2023-03-30T11:07:42;1.33;;;0.97;;
16813;SDS011;8524;57.650;11.926;2023-03-30T11:10:14;0.80;;;0.80;;
16813;SDS011;8524;57.650;11.926;2023-03-30T11:12:53;0.83;;;0.80;;
16813;SDS011;8524;57.650;11.926;2023-03-30T11:15:25;1.30;;;1.10;;
16813;SDS011;8524;57.650;11.926;2023-03-30T11:17:59;1.20;;;1.10;;
16813;SDS011;8524;57.650;11.926;2023-03-30T11:20:33;0.87;;;0.87;;
16813;SDS011;8524;57.650;11.926;2023-03-30T11:23:10;1.20;;;1.00;;
16813;SDS011;8524;57.650;11.926;2023-03-30T11:25:48;1.73;;;1.10;;
16813;SDS011;8524;57.650;11.926;2023-03-30T11:31:41;0.90;;;0.70;;
16813;SDS011;8524;57.650;11.926;2023-03-30T11:34:20;0.70;;;0.70;;
16813;SDS011;8524;57.650;11.926;2023-03-30T11:37:02;1.10;;;1.00;;
16813;SDS011;8524;57.650;11.926;2023-03-30T11:39:39;1.37;;;0.80;;
16813;SDS011;8524;57.650;11.926;2023-03-30T11:42:21;0.80;;;0.80;;
16813;SDS011;8524;57.650;11.926;2023-03-30T11:44:52;0.80;;;0.70;;
16813;SDS011;8524;57.650;11.926;2023-03-30T11:50:31;1.00;;;0.77;;
16813;SDS011;8524;57.650;11.926;2023-03-30T11:53:13;0.80;;;0.80;;
16813;SDS011;8524;57.650;11.926;2023-03-30T11:56:06;1.77;;;1.00;;
16813;SDS011;8524;57.650;11.926;2023-03-30T11:58:41;0.90;;;0.90;;
16813;SDS011;8524;57.650;11.926;2023-03-30T12:01:24;1.00;;;0.90;;
16813;SDS011;8524;57.650;11.926;2023-03-30T12:04:11;1.17;;;0.80;;
16813;SDS011;8524;57.650;11.926;2023-03-30T12:06:45;1.10;;;1.00;;
16813;SDS011;8524;57.650;11.926;2023-03-30T12:09:26;0.77;;;0.77;;
16813;SDS011;8524;57.650;11.926;2023-03-30T12:12:06;0.80;;;0.70;;
16813;SDS011;8524;57.650;11.926;2023-03-30T12:14:52;1.07;;;0.93;;
16813;SDS011;8524;57.650;11.926;2023-03-30T12:17:28;0.90;;;0.70;;
16813;SDS011;8524;57.650;11.926;2023-03-30T12:20:05;0.93;;;0.77;;
16813;SDS011;8524;57.650;11.926;2023-03-30T12:22:43;2.57;;;1.00;;
16813;SDS011;8524;57.650;11.926;2023-03-30T12:25:19;1.03;;;0.93;;
16813;SDS011;8524;57.650;11.926;2023-03-30T12:27:58;0.70;;;0.63;;
16813;SDS011;8524;57.650;11.926;2023-03-30T12:30:30;1.10;;;0.90;;
16813;SDS011;8524;57.650;11.926;2023-03-30T12:33:28;0.83;;;0.83;;
16813;SDS011;8524;57.650;11.926;2023-03-30T12:36:03;0.87;;;0.87;;
16813;SDS011;8524;57.650;11.926;2023-03-30T12:38:51;0.87;;;0.70;;
16813;SDS011;8524;57.650;11.926;2023-03-30T12:41:27;1.33;;;1.23;;
16813;SDS011;8524;57.650;11.926;2023-03-30T12:44:16;0.80;;;0.80;;
16813;SDS011;8524;57.650;11.926;2023-03-30T12:47:04;3.07;;;0.93;;
16813;SDS011;8524;57.650;11.926;2023-03-30T12:49:50;1.27;;;0.97;;
16813;SDS011;8524;57.650;11.926;2023-03-30T12:52:36;1.07;;;0.90;;
16813;SDS011;8524;57.650;11.926;2023-03-30T12:55:15;0.90;;;0.90;;
16813;SDS011;8524;57.650;11.926;2023-03-30T12:57:58;1.10;;;1.00;;
16813;SDS011;8524;57.650;11.926;2023-03-30T13:00:48;1.98;;;1.33;;
16813;SDS011;8524;57.650;11.926;2023-03-30T13:03:36;1.40;;;0.87;;
16813;SDS011;8524;57.650;11.926;2023-03-30T13:06:09;1.23;;;1.10;;
16813;SDS011;8524;57.650;11.926;2023-03-30T13:08:47;2.30;;;1.00;;
16813;SDS011;8524;57.650;11.926;2023-03-30T13:11:20;0.80;;;0.80;;
16813;SDS011;8524;57.650;11.926;2023-03-30T13:13:55;0.80;;;0.80;;
16813;SDS011;8524;57.650;11.926;2023-03-30T13:19:20;0.90;;;0.90;;
16813;SDS011;8524;57.650;11.926;2023-03-30T13:22:03;0.80;;;0.80;;
16813;SDS011;8524;57.650;11.926;2023-03-30T13:24:45;0.77;;;0.70;;
16813;SDS011;8524;57.650;11.926;2023-03-30T13:27:20;0.80;;;0.80;;
16813;SDS011;8524;57.650;11.926;2023-03-30T13:29:55;0.70;;;0.70;;
16813;SDS011;8524;57.650;11.926;2023-03-30T13:32:29;0.83;;;0.83;;
16813;SDS011;8524;57.650;11.926;2023-03-30T13:35:17;0.63;;;0.63;;
16813;SDS011;8524;57.650;11.926;2023-03-30T13:38:10;0.80;;;0.80;;
16813;SDS011;8524;57.650;11.926;2023-03-30T13:40:54;0.70;;;0.70;;
16813;SDS011;8524;57.650;11.926;2023-03-30T13:43:31;0.70;;;0.70;;
16813;SDS011;8524;57.650;11.926;2023-03-30T13:46:07;2.40;;;0.90;;
16813;SDS011;8524;57.650;11.926;2023-03-30T13:48:45;0.80;;;0.80;;
16813;SDS011;8524;57.650;11.926;2023-03-30T13:51:22;1.07;;;0.97;;
16813;SDS011;8524;57.650;11.926;2023-03-30T13:53:52;0.90;;;0.90;;
16813;SDS011;8524;57.650;11.926;2023-03-30T13:56:22;0.77;;;0.77;;
16813;SDS011;8524;57.650;11.926;2023-03-30T13:58:53;0.80;;;0.80;;
16813;SDS011;8524;57.650;11.926;2023-03-30T14:01:27;0.93;;;0.70;;
16813;SDS011;8524;57.650;11.926;2023-03-30T14:03:55;0.70;;;0.70;;
16813;SDS011;8524;57.650;11.926;2023-03-30T14:06:25;0.77;;;0.77;;
16813;SDS011;8524;57.650;11.926;2023-03-30T14:08:57;1.20;;;1.10;;
16813;SDS011;8524;57.650;11.926;2023-03-30T14:11:36;0.80;;;0.70;;
16813;SDS011;8524;57.650;11.926;2023-03-30T14:14:12;0.80;;;0.80;;
16813;SDS011;8524;57.650;11.926;2023-03-30T14:16:43;2.20;;;1.00;;
16813;SDS011;8524;57.650;11.926;2023-03-30T14:19:11;1.00;;;0.93;;
16813;SDS011;8524;57.650;11.926;2023-03-30T14:21:46;0.70;;;0.70;;
16813;SDS011;8524;57.650;11.926;2023-03-30T14:24:14;1.37;;;1.17;;
16813;SDS011;8524;57.650;11.926;2023-03-30T14:26:44;0.80;;;0.80;;
16813;SDS011;8524;57.650;11.926;2023-03-30T14:29:14;1.53;;;1.00;;
16813;SDS011;8524;57.650;11.926;2023-03-30T14:31:43;1.10;;;0.80;;
16813;SDS011;8524;57.650;11.926;2023-03-30T14:36:59;0.93;;;0.93;;
16813;SDS011;8524;57.650;11.926;2023-03-30T14:39:30;0.70;;;0.70;;
16813;SDS011;8524;57.650;11.926;2023-03-30T14:42:07;1.13;;;1.00;;
16813;SDS011;8524;57.650;11.926;2023-03-30T14:44:39;0.80;;;0.80;;
16813;SDS011;8524;57.650;11.926;2023-03-30T14:47:06;0.80;;;0.70;;
16813;SDS011;8524;57.650;11.926;2023-03-30T14:49:34;1.60;;;0.80;;
16813;SDS011;8524;57.650;11.926;2023-03-30T14:52:07;0.80;;;0.80;;
16813;SDS011;8524;57.650;11.926;2023-03-30T14:54:39;1.00;;;0.97;;
16813;SDS011;8524;57.650;11.926;2023-03-30T14:57:09;0.60;;;0.60;;
16813;SDS011;8524;57.650;11.926;2023-03-30T14:59:40;0.73;;;0.73;;
16813;SDS011;8524;57.650;11.926;2023-03-30T15:02:15;1.23;;;0.90;;
16813;SDS011;8524;57.650;11.926;2023-03-30T15:04:45;0.70;;;0.70;;
16813;SDS011;8524;57.650;11.926;2023-03-30T15:07:13;0.60;;;0.60;;
16813;SDS011;8524;57.650;11.926;2023-03-30T15:09:41;1.17;;;0.77;;
16813;SDS011;8524;57.650;11.926;2023-03-30T15:12:14;1.60;;;0.80;;
16813;SDS011;8524;57.650;11.926;2023-03-30T15:14:46;2.13;;;0.73;;
16813;SDS011;8524;57.650;11.926;2023-03-30T15:17:16;0.70;;;0.70;;
16813;SDS011;8524;57.650;11.926;2023-03-30T15:19:48;0.63;;;0.60;;
16813;SDS011;8524;57.650;11.926;2023-03-30T15:22:21;1.13;;;0.80;;
16813;SDS011;8524;57.650;11.926;2023-03-30T15:24:51;0.70;;;0.70;;
16813;SDS011;8524;57.650;11.926;2023-03-30T15:27:22;0.70;;;0.70;;
16813;SDS011;8524;57.650;11.926;2023-03-30T15:29:53;0.93;;;0.80;;
16813;SDS011;8524;57.650;11.926;2023-03-30T15:32:24;0.97;;;0.83;;
16813;SDS011;8524;57.650;11.926;2023-03-30T15:37:51;1.10;;;1.10;;
16813;SDS011;8524;57.650;11.926;2023-03-30T15:40:28;0.90;;;0.77;;
16813;SDS011;8524;57.650;11.926;2023-03-30T15:43:13;0.70;;;0.70;;
16813;SDS011;8524;57.650;11.926;2023-03-30T15:45:46;0.80;;;0.70;;
16813;SDS011;8524;57.650;11.926;2023-03-30T15:48:17;1.10;;;0.80;;